D/T METAR WX W/DIR W/SPE G/SPE TEMP DEWP
8/12/19 09:50 EGUW 080950Z AUTO 26017KT 9999 FEW034/// 09/06 Q0999 RERA W (260°) 19.6mph 9°C 6°C
8/12/19 08:50 EGUW 080850Z AUTO 27019G30KT 9999 RA FEW020/// BKN023/// BKN050/// 09/06 Q0998 RA W (270°) 21.9mph 34.5mph 9°C 6°C
8/12/19 07:50 EGUW 080750Z AUTO 25017KT 9999 -RA FEW026/// BKN044/// 09/07 Q0997 -RA WSW (250°) 19.6mph 9°C 7°C
8/12/19 06:50 EGUW 080650Z AUTO 25020G30KT 9999 FEW019/// BKN028/// 10/08 Q0996 WSW (250°) 23.0mph 34.5mph 10°C 8°C
8/12/19 05:50 EGUW 080550Z AUTO 23018KT 9999 BKN007/// BKN014/// 11/10 Q0996 SW (230°) 20.7mph 11°C 10°C
8/12/19 04:50 EGUW 080450Z AUTO 23019KT 9999 OVC008/// 10/09 Q0996 RERA SW (230°) 21.9mph 10°C 9°C
8/12/19 03:50 EGUW 080350Z AUTO 22020G30KT 7000 BR BKN008/// 10/09 Q0998 RERA BR SW (220°) 23.0mph 34.5mph 10°C 9°C
8/12/19 02:50 EGUW 080250Z AUTO 21019G32KT 6000 RA BKN009/// SCT050/// 09/09 Q0999 RA SSW (210°) 21.9mph 36.8mph 9°C 9°C
8/12/19 01:50 EGUW 080150Z AUTO 21018KT 9000 RA OVC012/// 10/08 Q1000 RA SSW (210°) 20.7mph 10°C 8°C
8/12/19 00:50 EGUW 080050Z AUTO 21019KT 9999 OVC012/// 10/08 Q1002 SSW (210°) 21.9mph 10°C 8°C
7/12/19 23:50 EGUW 072350Z AUTO 22016KT 9999 OVC012/// 10/08 Q1004 SW (220°) 18.4mph 10°C 8°C
7/12/19 22:50 EGUW 072250Z AUTO 22016KT 9999 OVC011/// 09/07 Q1005 SW (220°) 18.4mph 9°C 7°C
7/12/19 21:50 EGUW 072150Z AUTO 22015KT 9999 OVC014/// 09/07 Q1006 SW (220°) 17.3mph 9°C 7°C
7/12/19 20:50 EGUW 072050Z AUTO 23015KT 9999 BKN015/// 09/06 Q1008 SW (230°) 17.3mph 9°C 6°C
7/12/19 19:50 EGUW 071950Z AUTO 23011KT 9999 BKN018/// 08/05 Q1009 SW (230°) 12.7mph 8°C 5°C
7/12/19 18:50 EGUW 071850Z AUTO 21010KT 9999 FEW060/// 07/05 Q1010 SSW (210°) 11.5mph 7°C 5°C
7/12/19 17:50 EGUW 071750Z AUTO 22010KT 9999 FEW046/// 07/05 Q1011 SW (220°) 11.5mph 7°C 5°C
7/12/19 16:50 EGUW 071650Z AUTO 22009KT 9999 BKN070/// 08/05 Q1011 SW (220°) 10.4mph 8°C 5°C
7/12/19 15:50 EGUW 071550Z AUTO 22008KT 9999 FEW070/// 08/05 Q1011 SW (220°) 9.2mph 8°C 5°C
7/12/19 14:50 EGUW 071450Z AUTO 22011KT 9999 FEW027/// 09/06 Q1011 SW (220°) 12.7mph 9°C 6°C
7/12/19 13:50 EGUW 071350Z AUTO 23008KT 9999 OVC032/// 09/06 Q1011 SW (230°) 9.2mph 9°C 6°C
7/12/19 12:50 EGUW 071250Z AUTO 25011KT 9999 OVC037/// 09/06 Q1012 WSW (250°) 12.7mph 9°C 6°C
7/12/19 11:50 EGUW 071150Z AUTO 25011KT 9999 OVC036/// 08/06 Q1013 WSW (250°) 12.7mph 8°C 6°C
7/12/19 10:50 EGUW 071050Z AUTO 25010KT 9999 OVC037/// 08/06 Q1013 WSW (250°) 11.5mph 8°C 6°C
7/12/19 09:50 EGUW 070950Z AUTO 25008KT 9999 OVC039/// 08/06 Q1013 WSW (250°) 9.2mph 8°C 6°C
7/12/19 08:50 EGUW 070850Z AUTO 26009KT 9999 OVC037/// 07/06 Q1012 W (260°) 10.4mph 7°C 6°C
7/12/19 07:50 EGUW 070750Z AUTO 25008KT 9999 BKN034/// 07/05 Q1012 WSW (250°) 9.2mph 7°C 5°C
7/12/19 06:50 EGUW 070650Z AUTO 27010KT 9999 BKN038/// 07/06 Q1012 W (270°) 11.5mph 7°C 6°C
7/12/19 05:50 EGUW 070550Z AUTO 27011KT 9999 BKN040/// 07/05 Q1011 W (270°) 12.7mph 7°C 5°C
7/12/19 04:50 EGUW 070450Z AUTO 27014KT 9999 OVC040/// 08/06 Q1010 W (270°) 16.1mph 8°C 6°C
7/12/19 03:50 EGUW 070350Z AUTO 27011KT 9999 OVC038/// 08/06 Q1009 W (270°) 12.7mph 8°C 6°C
7/12/19 02:50 EGUW 070250Z AUTO 26011KT 9999 BKN038/// 07/06 Q1009 W (260°) 12.7mph 7°C 6°C
7/12/19 01:50 EGUW 070150Z AUTO 26013KT 9999 FEW040/// 07/05 Q1008 W (260°) 15.0mph 7°C 5°C
7/12/19 00:50 EGUW 070050Z AUTO 25010KT 9999 FEW034/// BKN040/// 06/05 Q1007 WSW (250°) 11.5mph 6°C 5°C
6/12/19 23:50 EGUW 062350Z AUTO 26012KT 9999 NCD 07/06 Q1007 W (260°) 13.8mph 7°C 6°C
6/12/19 22:50 EGUW 062250Z AUTO 27011KT 9999 NCD 07/06 Q1006 W (270°) 12.7mph 7°C 6°C
6/12/19 21:50 EGUW 062150Z AUTO 28011KT 9999 NCD 08/06 Q1005 W (280°) 12.7mph 8°C 6°C
6/12/19 20:50 EGUW 062050Z AUTO 27013KT 9999 SCT019/// 08/07 Q1004 W (270°) 15.0mph 8°C 7°C
6/12/19 19:50 EGUW 061950Z AUTO 27013KT 9999 FEW023/// BKN043/// 08/07 Q1003 W (270°) 15.0mph 8°C 7°C
6/12/19 18:50 EGUW 061850Z AUTO 28015KT 9999 SCT039/// SCT050/// BKN080/// 09/08 Q1002 RERA W (280°) 17.3mph 9°C 8°C
6/12/19 17:50 EGUW 061750Z AUTO 28014KT 9999 RADZ FEW021/// SCT033/// BKN043/// 09/07 Q1001 RA DZ W (280°) 16.1mph 9°C 7°C
6/12/19 16:50 EGUW 061650Z AUTO 25018KT 7000 RA FEW020/// BKN023/// 10/08 Q0999 RA WSW (250°) 20.7mph 10°C 8°C
6/12/19 15:50 EGUW 061550Z AUTO 25016KT 9999 FEW023/// 11/08 Q0999 WSW (250°) 18.4mph 11°C 8°C
6/12/19 14:50 EGUW 061450Z 25016KT 9999 SCT044 11/08 Q0999 TEMPO 4000 +SHRA SCT015 RMK BLU TEMPO GRN WSW (250°) 18.4mph 11°C 8°C
6/12/19 14:20 EGUW 061420Z 25019G31KT 9999 FEW012 BKN040 12/09 Q0999 TEMPO SCT018 RMK BLU TEMPO WHT WSW (250°) 21.9mph 35.7mph 12°C 9°C
6/12/19 13:50 EGUW 061350Z 24016KT 9999 FEW012 SCT020 12/10 Q1000 TEMPO FEW018 RMK WHT TEMPO BLU WSW (240°) 18.4mph 12°C 10°C
6/12/19 13:20 EGUW 061320Z 23016KT 9999 SCT010 BKN040 12/11 Q1000 BECMG SCT018 RMK GRN BECMG WHT SW (230°) 18.4mph 12°C 11°C
6/12/19 12:50 EGUW 061250Z 24017KT 9999 -DZ BKN010 BKN030 12/11 Q1000 BECMG SCT018 RMK GRN BECMG WHT -DZ WSW (240°) 19.6mph 12°C 11°C